Weather at Dabolim Airport

Public forecast

Using degrees Celsius for public forecast. Weather courtesy of forecast.io.

Closest aviation weather report (METAR) to Dabolim Airport

Report is more than 2 hours old.

Closest report is Belagavi Airport, 53.8 nm (99.7 km) ENE. Retrieved 2021/04/15 14:30 UTC (3 hours ago):

VOBM 151430Z 29011KT 9999 FEW015 25/20 Q1013

Closest aviation forecast (TAF) to Dabolim Airport

Forecast is more than 12 hours old.

Retrieved 2020/10/07 06:00 UTC (6 months ago):

TAF VOGO 070300Z 0706/0812 23010KT 6000 SCT016 SCT090 BECMG 0710/0712 30008KT TEMPO 0714/0718 4000 RA FEW010 SCT014 FEW025TCU/CB BKN080 BECMG 0718/0720 07006KT 5000 BR/DZ FEW010 SCT014 BKN090 TEMPO 0723/0802 3000 -RA/BR BECMG 0805/0807 24010KT 6000